createdAt,value
2018-01-19T00:01:08.014Z,9.40
2018-01-19T00:03:37.553Z,9.80
2018-01-19T00:06:07.123Z,6.03
2018-01-19T00:08:36.363Z,7.43
2018-01-19T00:11:05.910Z,6.90
2018-01-19T00:13:35.481Z,7.17
2018-01-19T00:16:05.025Z,6.63
2018-01-19T00:18:34.572Z,6.80
2018-01-19T00:21:04.109Z,5.53
2018-01-19T00:23:33.692Z,7.90
2018-01-19T00:26:03.278Z,9.10
2018-01-19T00:28:32.833Z,12.50
2018-01-19T00:31:02.410Z,9.13
2018-01-19T00:33:31.977Z,7.37
2018-01-19T00:36:01.517Z,6.03
2018-01-19T00:38:31.053Z,8.70
2018-01-19T00:41:00.614Z,7.10
2018-01-19T00:43:30.157Z,6.37
2018-01-19T00:45:59.737Z,7.37
2018-01-19T00:48:29.311Z,10.77
2018-01-19T00:50:58.852Z,5.23
2018-01-19T00:53:28.463Z,7.57
2018-01-19T00:55:58.052Z,8.17
2018-01-19T00:58:27.643Z,6.60
2018-01-19T01:00:57.230Z,6.10
2018-01-19T01:03:26.842Z,5.67
2018-01-19T01:05:56.607Z,7.37
2018-01-19T01:08:26.168Z,7.77
2018-01-19T01:10:55.742Z,8.50
2018-01-19T01:13:25.279Z,8.67
2018-01-19T01:15:54.834Z,6.57
2018-01-19T01:18:24.404Z,5.17
2018-01-19T01:20:53.918Z,7.87
2018-01-19T01:23:23.472Z,7.10
2018-01-19T01:25:53.056Z,7.20
2018-01-19T01:28:22.737Z,6.43
2018-01-19T01:30:52.323Z,8.47
2018-01-19T01:33:21.887Z,5.97
2018-01-19T01:35:51.469Z,6.27
2018-01-19T01:38:21.024Z,4.33
2018-01-19T01:40:50.582Z,5.70
2018-01-19T01:43:20.163Z,22.10
2018-01-19T01:45:49.747Z,35.03
2018-01-19T01:48:19.294Z,38.13
2018-01-19T01:50:48.888Z,28.47
2018-01-19T01:53:18.455Z,21.77
2018-01-19T01:55:48.009Z,18.90
2018-01-19T01:58:17.585Z,18.43
2018-01-19T02:00:47.112Z,10.03
2018-01-19T02:03:16.657Z,6.30
2018-01-19T02:05:46.220Z,5.33
2018-01-19T02:08:15.833Z,10.73
2018-01-19T02:10:45.432Z,11.87
2018-01-19T02:13:14.993Z,5.13
2018-01-19T02:15:44.640Z,10.93
2018-01-19T02:18:14.162Z,6.37
2018-01-19T02:20:43.729Z,4.27
2018-01-19T02:23:13.258Z,5.70
2018-01-19T02:25:42.871Z,6.10
2018-01-19T02:28:12.474Z,5.30
2018-01-19T02:30:42.077Z,6.33
2018-01-19T02:33:11.668Z,7.30
2018-01-19T02:35:41.209Z,6.57
2018-01-19T02:38:10.775Z,5.37
2018-01-19T02:40:40.324Z,6.77
2018-01-19T02:43:09.914Z,4.73
2018-01-19T02:45:39.511Z,5.63
2018-01-19T02:48:09.021Z,6.00
2018-01-19T02:50:38.590Z,4.60
2018-01-19T02:53:08.199Z,5.17
2018-01-19T02:55:37.754Z,4.30
2018-01-19T02:58:07.342Z,5.33
2018-01-19T03:00:36.931Z,4.07
2018-01-19T03:03:06.489Z,5.50
2018-01-19T03:05:36.034Z,5.87
2018-01-19T03:08:05.601Z,5.23
2018-01-19T03:10:35.143Z,6.07
2018-01-19T03:13:04.725Z,6.90
2018-01-19T03:15:34.304Z,6.97
2018-01-19T03:18:03.885Z,9.13
2018-01-19T03:20:33.456Z,7.17
2018-01-19T03:23:03.009Z,8.13
2018-01-19T03:25:32.556Z,9.70
2018-01-19T03:28:02.078Z,12.53
2018-01-19T03:30:31.682Z,11.27
2018-01-19T03:33:01.615Z,10.83
2018-01-19T03:35:31.210Z,10.73
2018-01-19T03:38:00.797Z,11.03
2018-01-19T03:40:30.356Z,11.53
2018-01-19T03:43:00.007Z,13.03
2018-01-19T03:45:29.546Z,11.03
2018-01-19T03:47:59.123Z,12.70
2018-01-19T03:50:28.694Z,9.10
2018-01-19T03:52:58.117Z,10.57
2018-01-19T03:55:27.498Z,10.30
2018-01-19T03:57:57.032Z,9.73
2018-01-19T04:00:26.570Z,8.03
2018-01-19T04:02:56.141Z,7.93
2018-01-19T04:05:25.654Z,7.67
2018-01-19T04:07:55.160Z,7.47
2018-01-19T04:10:24.652Z,7.40
2018-01-19T04:12:54.174Z,9.13
2018-01-19T04:15:23.694Z,11.67
2018-01-19T04:17:53.204Z,11.37
2018-01-19T04:20:22.708Z,11.27
2018-01-19T04:22:52.199Z,9.73
2018-01-19T04:25:21.696Z,8.50
2018-01-19T04:27:51.192Z,10.57
2018-01-19T04:30:20.696Z,11.97
2018-01-19T04:32:50.188Z,10.67
2018-01-19T04:35:19.720Z,7.60
2018-01-19T04:37:49.216Z,6.93
2018-01-19T04:40:18.556Z,8.83
2018-01-19T04:42:48.048Z,8.33
2018-01-19T04:45:17.553Z,11.70
2018-01-19T04:47:47.077Z,17.53
2018-01-19T04:50:16.588Z,18.70
2018-01-19T04:52:46.100Z,18.30
2018-01-19T04:55:15.608Z,13.17
2018-01-19T04:57:45.120Z,16.27
2018-01-19T05:00:14.620Z,17.93
2018-01-19T05:02:44.125Z,14.43
2018-01-19T05:05:13.641Z,17.73
2018-01-19T05:07:43.161Z,15.30
2018-01-19T05:10:12.666Z,15.67
2018-01-19T05:12:42.172Z,23.77
2018-01-19T05:15:11.708Z,20.00
2018-01-19T05:17:41.213Z,23.83
2018-01-19T05:20:10.708Z,19.30
2018-01-19T05:22:40.232Z,17.17
2018-01-19T05:25:09.733Z,14.60
2018-01-19T05:27:39.246Z,19.70
2018-01-19T05:30:08.763Z,15.63
2018-01-19T05:32:38.118Z,17.87
2018-01-19T05:35:07.633Z,19.20
2018-01-19T05:37:37.135Z,20.20
2018-01-19T05:40:06.641Z,25.07
2018-01-19T05:42:36.145Z,69.63
2018-01-19T05:45:05.650Z,29.70
2018-01-19T05:47:34.143Z,20.07
2018-01-19T05:50:02.596Z,20.90
2018-01-19T05:52:31.085Z,19.27
2018-01-19T05:55:00.309Z,20.07
2018-01-19T05:57:28.794Z,23.67
2018-01-19T05:59:57.277Z,23.53
2018-01-19T06:02:25.737Z,26.93
2018-01-19T06:04:54.219Z,21.50
2018-01-19T06:07:22.684Z,21.80
2018-01-19T06:09:51.942Z,20.13
2018-01-19T06:12:20.450Z,18.27
2018-01-19T06:14:48.912Z,15.20
2018-01-19T06:17:17.392Z,12.40
2018-01-19T06:19:45.862Z,11.10
2018-01-19T06:22:14.361Z,6.50
2018-01-19T06:24:42.848Z,6.53
2018-01-19T06:27:11.293Z,6.90
2018-01-19T06:29:39.806Z,7.40
2018-01-19T06:32:08.262Z,6.97
2018-01-19T06:34:36.785Z,5.43
2018-01-19T06:37:05.439Z,3.77
2018-01-19T06:39:33.894Z,5.83
2018-01-19T06:42:02.418Z,5.00
2018-01-19T06:44:30.939Z,3.33
2018-01-19T06:46:59.530Z,93.10
2018-01-19T06:49:27.874Z,82.30
2018-01-19T06:51:57.156Z,17.70
2018-01-19T06:54:25.685Z,5.57
2018-01-19T06:56:54.008Z,4.70
2018-01-19T06:59:22.397Z,3.70
2018-01-19T07:01:50.934Z,6.10
2018-01-19T07:04:19.499Z,4.60
2018-01-19T07:06:48.028Z,4.33
2018-01-19T07:09:16.561Z,4.67
2018-01-19T07:11:45.098Z,4.90
2018-01-19T07:14:13.669Z,5.63
2018-01-19T07:16:42.699Z,3.83
2018-01-19T07:19:11.986Z,4.67
2018-01-19T07:21:40.518Z,5.53
2018-01-19T07:24:09.058Z,7.27
2018-01-19T07:26:38.362Z,7.40
2018-01-19T07:29:07.221Z,11.50
2018-01-19T07:31:36.965Z,11.60
2018-01-19T07:34:06.441Z,8.37
2018-01-19T07:36:36.074Z,8.03
2018-01-19T07:39:04.866Z,6.77
2018-01-19T07:41:34.255Z,13.47
2018-01-19T07:44:02.995Z,8.20
2018-01-19T07:46:32.467Z,13.40
2018-01-19T07:49:02.736Z,15.63
2018-01-19T07:51:31.554Z,10.80
2018-01-19T07:54:00.205Z,8.33
2018-01-19T07:56:28.878Z,11.00
2018-01-19T07:58:57.383Z,11.13
2018-01-19T08:01:25.961Z,9.87
2018-01-19T08:03:54.583Z,6.93
2018-01-19T08:06:23.865Z,8.20
2018-01-19T08:08:52.490Z,9.53
2018-01-19T08:11:21.072Z,6.37
2018-01-19T08:13:49.616Z,6.83
2018-01-19T08:16:18.177Z,5.77
2018-01-19T08:18:46.777Z,6.83
2018-01-19T08:21:15.315Z,8.00
2018-01-19T08:23:43.706Z,6.27
2018-01-19T08:26:12.210Z,7.17
2018-01-19T08:28:40.765Z,3.07
2018-01-19T08:31:09.341Z,4.37
2018-01-19T08:33:38.698Z,5.27
2018-01-19T08:36:08.007Z,4.83
2018-01-19T08:38:37.316Z,4.03
2018-01-19T08:41:06.670Z,4.63
2018-01-19T08:43:35.432Z,4.17
2018-01-19T08:46:04.049Z,8.13
2018-01-19T08:48:32.601Z,4.87
2018-01-19T08:51:02.129Z,4.33
2018-01-19T08:53:30.694Z,5.13
2018-01-19T08:55:59.221Z,4.40
2018-01-19T08:58:27.777Z,4.33
2018-01-19T09:00:56.327Z,6.07
2018-01-19T09:03:24.880Z,7.83
2018-01-19T09:05:53.436Z,8.00
2018-01-19T09:08:22.030Z,7.20
2018-01-19T09:10:50.568Z,10.87
2018-01-19T09:13:19.097Z,8.60
2018-01-19T09:15:47.670Z,9.37
2018-01-19T09:18:16.222Z,4.90
2018-01-19T09:20:44.755Z,7.33
2018-01-19T09:23:13.313Z,7.27
2018-01-19T09:25:41.838Z,5.13
2018-01-19T09:28:11.142Z,4.43
2018-01-19T09:30:42.599Z,6.80
2018-01-19T09:33:11.183Z,4.67
2018-01-19T09:35:39.731Z,4.30
2018-01-19T09:38:08.245Z,3.30
2018-01-19T09:40:36.790Z,4.27
2018-01-19T09:43:04.979Z,3.70
2018-01-19T09:45:34.271Z,6.17
2018-01-19T09:48:02.814Z,3.57
2018-01-19T09:50:31.205Z,4.20
2018-01-19T09:52:59.737Z,5.83
2018-01-19T09:55:29.040Z,7.43
2018-01-19T09:57:57.587Z,7.40
2018-01-19T10:00:26.138Z,4.87
2018-01-19T10:03:05.374Z,5.87
2018-01-19T10:05:33.939Z,7.40
2018-01-19T10:08:02.482Z,8.37
2018-01-19T10:10:31.022Z,8.77
2018-01-19T10:12:59.536Z,7.40
2018-01-19T10:15:28.079Z,7.27
2018-01-19T10:17:56.621Z,9.50
2018-01-19T10:20:25.902Z,5.70
2018-01-19T10:22:54.426Z,6.43
2018-01-19T10:25:22.982Z,9.57
2018-01-19T10:27:52.358Z,6.63
2018-01-19T10:30:21.078Z,6.43
2018-01-19T10:32:50.349Z,7.47
2018-01-19T10:35:18.892Z,7.07
2018-01-19T10:37:47.382Z,6.57
2018-01-19T10:40:15.950Z,7.47
2018-01-19T10:42:44.470Z,4.97
2018-01-19T10:45:13.061Z,8.17
2018-01-19T10:47:45.341Z,6.33
2018-01-19T10:50:13.898Z,6.17
2018-01-19T10:52:42.306Z,8.53
2018-01-19T10:55:10.874Z,7.03
2018-01-19T10:57:39.381Z,5.53
2018-01-19T11:00:08.724Z,6.17
2018-01-19T11:02:37.218Z,5.97
2018-01-19T11:05:05.739Z,5.13
2018-01-19T11:07:34.265Z,7.00
2018-01-19T11:10:02.758Z,7.43
2018-01-19T11:12:31.328Z,4.40
2018-01-19T11:14:59.850Z,4.23
2018-01-19T11:17:28.519Z,4.27
2018-01-19T11:19:57.683Z,6.53
2018-01-19T11:22:26.228Z,8.57
2018-01-19T11:24:55.677Z,4.70
2018-01-19T11:27:24.983Z,5.30
2018-01-19T11:29:53.510Z,6.27
2018-01-19T11:32:22.169Z,7.93
2018-01-19T11:34:50.711Z,7.67
2018-01-19T11:37:19.366Z,4.17
2018-01-19T11:39:48.655Z,6.10
2018-01-19T11:42:17.190Z,4.07
2018-01-19T11:44:45.757Z,8.83
2018-01-19T11:47:16.231Z,6.03
2018-01-19T11:49:44.825Z,4.63
2018-01-19T11:52:13.347Z,5.00
2018-01-19T11:54:42.676Z,6.00
2018-01-19T11:57:11.230Z,6.90
2018-01-19T11:59:40.531Z,3.47
2018-01-19T12:02:09.001Z,3.13
2018-01-19T12:04:38.301Z,4.30
2018-01-19T12:07:07.574Z,6.37
2018-01-19T12:09:36.098Z,3.87
2018-01-19T12:12:04.674Z,3.40
2018-01-19T12:14:33.215Z,6.20
2018-01-19T12:17:01.726Z,3.90
2018-01-19T12:19:31.046Z,3.63
2018-01-19T12:21:59.573Z,5.70
2018-01-19T12:24:28.062Z,6.43
2018-01-19T12:26:56.602Z,6.30
2018-01-19T12:29:25.143Z,5.50
2018-01-19T12:31:53.701Z,9.80
2018-01-19T12:34:22.254Z,11.00
2018-01-19T12:36:50.802Z,10.73
2018-01-19T12:39:20.058Z,7.60
2018-01-19T12:41:48.580Z,5.13
2018-01-19T12:44:17.199Z,3.60
2018-01-19T12:46:46.529Z,7.63
2018-01-19T12:49:15.074Z,6.97
2018-01-19T12:51:43.451Z,4.30
2018-01-19T12:54:11.971Z,2.53
2018-01-19T12:56:40.541Z,2.30
2018-01-19T12:59:09.087Z,3.13
2018-01-19T13:01:38.369Z,5.87
2018-01-19T13:04:12.758Z,2.53
2018-01-19T13:06:41.146Z,4.07
2018-01-19T13:09:13.006Z,3.87
2018-01-19T13:11:41.542Z,4.00
2018-01-19T13:14:10.066Z,5.23
2018-01-19T13:16:42.334Z,3.70
2018-01-19T13:19:10.860Z,2.83
2018-01-19T13:21:40.130Z,5.53
2018-01-19T13:24:08.696Z,3.27
2018-01-19T13:26:37.230Z,2.20
2018-01-19T13:29:06.520Z,2.07
2018-01-19T13:31:35.844Z,3.30
2018-01-19T13:34:04.371Z,5.70
2018-01-19T13:36:32.906Z,5.93
2018-01-19T13:39:01.475Z,3.77
2018-01-19T13:41:30.771Z,6.77
2018-01-19T13:44:00.055Z,3.50
2018-01-19T13:46:28.630Z,5.93
2018-01-19T13:48:57.221Z,9.23
2018-01-19T13:51:25.742Z,4.83
2018-01-19T13:53:54.296Z,5.37
2018-01-19T13:56:23.618Z,8.40
2018-01-19T13:58:52.127Z,3.80
2018-01-19T14:01:20.702Z,11.23
2018-01-19T14:03:49.237Z,8.67
2018-01-19T14:06:17.770Z,7.97
2018-01-19T14:08:46.182Z,8.40
2018-01-19T14:11:14.740Z,15.33
2018-01-19T14:13:43.286Z,10.53
2018-01-19T14:16:11.990Z,6.63
2018-01-19T14:18:40.566Z,4.03
2018-01-19T14:21:09.123Z,5.27
2018-01-19T14:23:38.421Z,4.23
2018-01-19T14:26:07.740Z,4.10
2018-01-19T14:28:36.987Z,6.50
2018-01-19T14:31:05.529Z,5.43
2018-01-19T14:33:34.046Z,5.80
2018-01-19T14:36:02.599Z,3.90
2018-01-19T14:38:31.171Z,4.67
2018-01-19T14:40:59.718Z,4.23
2018-01-19T14:43:28.279Z,5.23
2018-01-19T14:45:56.824Z,3.27
2018-01-19T14:48:25.349Z,4.50
2018-01-19T14:50:53.899Z,3.10
2018-01-19T14:53:22.471Z,3.00
2018-01-19T14:55:51.004Z,4.40
2018-01-19T14:58:19.565Z,7.93
2018-01-19T15:00:48.121Z,3.83
2018-01-19T15:03:16.683Z,3.83
2018-01-19T15:05:45.990Z,7.87
2018-01-19T15:08:15.311Z,5.27
2018-01-19T15:10:44.642Z,5.83
2018-01-19T15:13:13.138Z,2.87
2018-01-19T15:15:41.739Z,5.13
2018-01-19T15:18:11.084Z,9.03
2018-01-19T15:20:39.590Z,7.87
2018-01-19T15:23:08.228Z,7.87
2018-01-19T15:25:36.797Z,7.90
2018-01-19T15:28:06.139Z,6.03
2018-01-19T15:30:34.680Z,5.20
2018-01-19T15:33:03.722Z,5.80
2018-01-19T15:35:33.063Z,6.00
2018-01-19T15:38:01.598Z,5.97
2018-01-19T15:40:30.138Z,5.70
2018-01-19T15:42:59.462Z,6.07
2018-01-19T15:45:28.059Z,13.23
2018-01-19T15:47:56.765Z,9.73
2018-01-19T15:50:25.261Z,9.03
2018-01-19T15:52:53.863Z,8.07
2018-01-19T15:55:22.433Z,5.00
2018-01-19T15:57:50.916Z,3.40
2018-01-19T16:00:19.482Z,5.03
2018-01-19T16:02:48.005Z,4.50
2018-01-19T16:05:17.297Z,2.90
2018-01-19T16:07:46.625Z,7.60
2018-01-19T16:10:15.205Z,20.87
2018-01-19T16:12:44.529Z,11.50
2018-01-19T16:15:13.117Z,13.27
2018-01-19T16:17:41.697Z,6.23
2018-01-19T16:20:10.228Z,12.73
2018-01-19T16:22:39.738Z,16.40
2018-01-19T16:25:09.241Z,34.00
2018-01-19T16:27:37.737Z,30.50
2018-01-19T16:30:06.269Z,39.27
2018-01-19T16:32:34.803Z,32.07
2018-01-19T16:35:03.346Z,24.37
2018-01-19T16:37:31.711Z,13.27
2018-01-19T16:40:00.454Z,12.83
2018-01-19T16:42:28.954Z,11.97
2018-01-19T16:44:57.489Z,9.43
2018-01-19T16:47:26.026Z,10.13
2018-01-19T16:49:54.576Z,20.10
2018-01-19T16:52:23.886Z,14.17
2018-01-19T16:54:52.234Z,11.33
2018-01-19T16:57:20.765Z,12.07
2018-01-19T16:59:49.302Z,12.70
2018-01-19T17:02:18.605Z,12.57
2018-01-19T17:04:47.864Z,11.33
2018-01-19T17:07:16.420Z,11.20
2018-01-19T17:09:45.078Z,8.70
2018-01-19T17:12:14.344Z,4.53
2018-01-19T17:14:42.899Z,7.37
2018-01-19T17:17:11.427Z,8.20
2018-01-19T17:19:40.010Z,4.30
2018-01-19T17:22:08.603Z,6.67
2018-01-19T17:24:37.922Z,7.23
2018-01-19T17:27:06.413Z,9.73
2018-01-19T17:29:34.957Z,7.80
2018-01-19T17:32:03.478Z,10.77
2018-01-19T17:34:32.070Z,11.63
2018-01-19T17:37:01.403Z,15.23
2018-01-19T17:39:29.930Z,13.47
2018-01-19T17:41:58.429Z,9.67
2018-01-19T17:44:26.965Z,8.50
2018-01-19T17:46:55.519Z,8.20
2018-01-19T17:49:24.054Z,7.97
2018-01-19T17:51:52.571Z,8.50
2018-01-19T17:54:21.182Z,7.43
2018-01-19T17:56:49.729Z,8.27
2018-01-19T17:59:18.300Z,8.03
2018-01-19T18:01:46.846Z,6.67
2018-01-19T18:04:15.365Z,6.80
2018-01-19T18:06:43.906Z,8.77
2018-01-19T18:09:12.436Z,5.47
2018-01-19T18:11:40.971Z,5.50
2018-01-19T18:14:09.522Z,9.17
2018-01-19T18:16:38.098Z,6.30
2018-01-19T18:19:06.601Z,8.60
2018-01-19T18:21:35.185Z,5.97
2018-01-19T18:24:03.876Z,7.47
2018-01-19T18:26:32.413Z,9.53
2018-01-19T18:29:00.947Z,9.00
2018-01-19T18:31:29.509Z,6.77
2018-01-19T18:33:58.043Z,5.00
2018-01-19T18:36:26.615Z,7.83
2018-01-19T18:38:55.938Z,5.47
2018-01-19T18:41:24.488Z,6.57
2018-01-19T18:43:53.014Z,7.80
2018-01-19T18:46:21.530Z,4.97
2018-01-19T18:48:50.046Z,9.80
2018-01-19T18:51:19.202Z,7.03
2018-01-19T18:53:47.759Z,4.93
2018-01-19T18:56:16.250Z,6.47
2018-01-19T18:58:46.839Z,9.70
2018-01-19T19:01:15.389Z,9.50
2018-01-19T19:03:43.937Z,7.83
2018-01-19T19:06:12.491Z,7.47
2018-01-19T19:08:42.052Z,6.53
2018-01-19T19:11:10.777Z,8.87
2018-01-19T19:13:39.345Z,6.93
2018-01-19T19:16:09.863Z,5.43
2018-01-19T19:18:38.435Z,29.07
2018-01-19T19:21:06.991Z,22.43
2018-01-19T19:23:35.565Z,16.37
2018-01-19T19:26:04.067Z,11.97
2018-01-19T19:28:32.611Z,10.57
2018-01-19T19:31:01.426Z,9.67
2018-01-19T19:33:32.265Z,9.20
2018-01-19T19:36:01.837Z,10.57
2018-01-19T19:38:31.414Z,12.80
2018-01-19T19:41:03.063Z,19.60
2018-01-19T19:43:33.471Z,13.93
2018-01-19T19:46:03.036Z,13.57
2018-01-19T19:48:32.621Z,21.77
2018-01-19T19:51:04.221Z,22.37
2018-01-19T19:53:35.578Z,21.43
2018-01-19T19:56:05.142Z,18.90
2018-01-19T19:58:34.691Z,19.77
2018-01-19T20:01:04.214Z,26.87
2018-01-19T20:03:33.795Z,16.60
2018-01-19T20:06:03.392Z,12.50
2018-01-19T20:08:32.958Z,12.50
2018-01-19T20:11:02.518Z,12.90
2018-01-19T20:13:32.226Z,8.03
2018-01-19T20:16:01.826Z,6.57
2018-01-19T20:18:31.410Z,7.30
2018-01-19T20:21:00.977Z,10.23
2018-01-19T20:23:30.528Z,11.87
2018-01-19T20:26:00.086Z,11.07
2018-01-19T20:28:29.661Z,8.00
2018-01-19T20:30:59.065Z,10.40
2018-01-19T20:33:28.634Z,23.50
2018-01-19T20:35:58.196Z,19.13
2018-01-19T20:38:27.747Z,16.87
2018-01-19T20:40:57.344Z,14.03
2018-01-19T20:43:26.909Z,13.47
2018-01-19T20:45:56.461Z,15.73
2018-01-19T20:48:26.001Z,14.10
2018-01-19T20:50:55.578Z,13.87
2018-01-19T20:53:25.149Z,11.47
2018-01-19T20:55:54.695Z,13.00
2018-01-19T20:58:24.301Z,14.43
2018-01-19T21:00:53.922Z,14.30
2018-01-19T21:03:23.673Z,16.67
2018-01-19T21:05:53.204Z,10.93
2018-01-19T21:08:22.872Z,11.70
2018-01-19T21:10:52.460Z,13.93
2018-01-19T21:13:22.001Z,12.20
2018-01-19T21:15:51.525Z,11.33
2018-01-19T21:18:21.045Z,21.57
2018-01-19T21:20:50.653Z,15.20
2018-01-19T21:23:20.212Z,20.13
2018-01-19T21:25:49.776Z,17.33
2018-01-19T21:28:19.310Z,19.73
2018-01-19T21:30:48.852Z,19.43
2018-01-19T21:33:23.793Z,17.77
2018-01-19T21:35:56.805Z,16.80
2018-01-19T21:38:26.395Z,15.97
2018-01-19T21:41:03.601Z,16.63
2018-01-19T21:43:33.157Z,15.37
2018-01-19T21:46:02.707Z,14.47
2018-01-19T21:48:32.367Z,14.30
2018-01-19T21:51:01.962Z,18.47
2018-01-19T21:53:31.522Z,13.57
2018-01-19T21:56:01.128Z,11.50
2018-01-19T21:58:30.831Z,13.63
2018-01-19T22:01:00.410Z,15.90
2018-01-19T22:03:29.992Z,13.47
2018-01-19T22:05:59.570Z,13.07
2018-01-19T22:08:29.109Z,15.93
2018-01-19T22:10:58.695Z,14.10
2018-01-19T22:13:28.281Z,17.40
2018-01-19T22:15:57.847Z,11.07
2018-01-19T22:18:27.434Z,13.97
2018-01-19T22:21:02.835Z,20.60
2018-01-19T22:23:32.417Z,19.70
2018-01-19T22:26:02.031Z,15.80
2018-01-19T22:28:31.600Z,15.37
2018-01-19T22:31:01.124Z,17.40
2018-01-19T22:33:30.570Z,14.50
2018-01-19T22:36:00.140Z,19.97
2018-01-19T22:38:29.739Z,20.67
2018-01-19T22:40:59.370Z,12.70
2018-01-19T22:43:29.001Z,16.87
2018-01-19T22:45:58.583Z,17.03
2018-01-19T22:48:28.158Z,16.67
2018-01-19T22:50:57.734Z,23.10
2018-01-19T22:53:27.371Z,14.70
2018-01-19T22:55:56.930Z,15.97
2018-01-19T22:58:26.523Z,16.47
2018-01-19T23:00:56.070Z,20.50
2018-01-19T23:03:25.629Z,13.47
2018-01-19T23:05:55.188Z,15.23
2018-01-19T23:08:24.769Z,15.27
2018-01-19T23:10:54.308Z,17.17
2018-01-19T23:13:23.915Z,15.23
2018-01-19T23:15:53.468Z,17.40
2018-01-19T23:18:23.023Z,14.37
2018-01-19T23:20:52.589Z,16.67
2018-01-19T23:23:22.244Z,15.70
2018-01-19T23:25:51.829Z,15.77
2018-01-19T23:28:21.423Z,15.67
2018-01-19T23:30:50.985Z,16.13
2018-01-19T23:33:20.557Z,19.30
2018-01-19T23:35:50.071Z,13.20
2018-01-19T23:38:19.650Z,14.43
2018-01-19T23:40:49.217Z,14.03
2018-01-19T23:43:18.793Z,13.97
2018-01-19T23:45:48.364Z,13.43
2018-01-19T23:48:17.946Z,15.27
2018-01-19T23:50:47.524Z,12.33
2018-01-19T23:53:17.055Z,12.43
2018-01-19T23:55:46.621Z,12.00
2018-01-19T23:58:16.223Z,13.90
